sensor_id;sensor_type;location;lat;lon;timestamp;P1;durP1;ratioP1;P2;durP2;ratioP2
43146;SDS011;28752;48.266;7.402;2023-04-24T00:01:28;2.40;;;1.17;;
43146;SDS011;28752;48.266;7.402;2023-04-24T00:03:54;2.60;;;1.00;;
43146;SDS011;28752;48.266;7.402;2023-04-24T00:06:21;3.28;;;1.20;;
43146;SDS011;28752;48.266;7.402;2023-04-24T00:08:48;3.55;;;1.13;;
43146;SDS011;28752;48.266;7.402;2023-04-24T00:11:14;3.73;;;1.03;;
43146;SDS011;28752;48.266;7.402;2023-04-24T00:13:39;2.77;;;1.13;;
43146;SDS011;28752;48.266;7.402;2023-04-24T00:16:05;4.03;;;1.27;;
43146;SDS011;28752;48.266;7.402;2023-04-24T00:18:30;2.70;;;1.10;;
43146;SDS011;28752;48.266;7.402;2023-04-24T00:20:56;3.17;;;1.00;;
43146;SDS011;28752;48.266;7.402;2023-04-24T00:23:21;3.83;;;1.40;;
43146;SDS011;28752;48.266;7.402;2023-04-24T00:25:46;2.70;;;1.30;;
43146;SDS011;28752;48.266;7.402;2023-04-24T00:28:12;3.60;;;1.20;;
43146;SDS011;28752;48.266;7.402;2023-04-24T00:30:37;3.23;;;1.03;;
43146;SDS011;28752;48.266;7.402;2023-04-24T00:33:03;3.47;;;1.10;;
43146;SDS011;28752;48.266;7.402;2023-04-24T00:35:28;2.67;;;1.10;;
43146;SDS011;28752;48.266;7.402;2023-04-24T00:37:53;5.03;;;1.13;;
43146;SDS011;28752;48.266;7.402;2023-04-24T00:40:19;2.87;;;1.03;;
43146;SDS011;28752;48.266;7.402;2023-04-24T00:42:44;3.80;;;1.30;;
43146;SDS011;28752;48.266;7.402;2023-04-24T00:45:10;2.63;;;1.13;;
43146;SDS011;28752;48.266;7.402;2023-04-24T00:47:36;3.15;;;1.30;;
43146;SDS011;28752;48.266;7.402;2023-04-24T00:50:02;4.20;;;1.35;;
43146;SDS011;28752;48.266;7.402;2023-04-24T00:52:28;2.80;;;1.20;;
43146;SDS011;28752;48.266;7.402;2023-04-24T00:54:56;3.08;;;1.25;;
43146;SDS011;28752;48.266;7.402;2023-04-24T00:57:22;3.25;;;1.20;;
43146;SDS011;28752;48.266;7.402;2023-04-24T00:59:48;3.33;;;1.42;;
43146;SDS011;28752;48.266;7.402;2023-04-24T01:02:15;3.47;;;1.20;;
43146;SDS011;28752;48.266;7.402;2023-04-24T01:04:40;3.28;;;1.33;;
43146;SDS011;28752;48.266;7.402;2023-04-24T01:07:06;3.22;;;1.40;;
43146;SDS011;28752;48.266;7.402;2023-04-24T01:09:35;2.72;;;1.10;;
43146;SDS011;28752;48.266;7.402;2023-04-24T01:12:06;2.78;;;1.00;;
43146;SDS011;28752;48.266;7.402;2023-04-24T01:14:31;2.95;;;1.10;;
43146;SDS011;28752;48.266;7.402;2023-04-24T01:16:58;3.15;;;1.30;;
43146;SDS011;28752;48.266;7.402;2023-04-24T01:19:23;3.33;;;1.10;;
43146;SDS011;28752;48.266;7.402;2023-04-24T01:21:50;6.73;;;1.00;;
43146;SDS011;28752;48.266;7.402;2023-04-24T01:24:18;3.30;;;1.40;;
43146;SDS011;28752;48.266;7.402;2023-04-24T01:26:44;3.72;;;1.33;;
43146;SDS011;28752;48.266;7.402;2023-04-24T01:29:10;5.30;;;1.38;;
43146;SDS011;28752;48.266;7.402;2023-04-24T01:31:36;3.93;;;1.03;;
43146;SDS011;28752;48.266;7.402;2023-04-24T01:34:02;3.28;;;1.42;;
43146;SDS011;28752;48.266;7.402;2023-04-24T01:36:27;4.20;;;1.30;;
43146;SDS011;28752;48.266;7.402;2023-04-24T01:43:45;3.15;;;1.25;;
43146;SDS011;28752;48.266;7.402;2023-04-24T01:46:11;2.43;;;1.00;;
43146;SDS011;28752;48.266;7.402;2023-04-24T01:48:36;3.47;;;1.27;;
43146;SDS011;28752;48.266;7.402;2023-04-24T01:51:01;3.63;;;1.00;;
43146;SDS011;28752;48.266;7.402;2023-04-24T01:53:27;3.00;;;1.37;;
43146;SDS011;28752;48.266;7.402;2023-04-24T01:55:52;2.30;;;1.00;;
43146;SDS011;28752;48.266;7.402;2023-04-24T01:58:18;3.00;;;1.30;;
43146;SDS011;28752;48.266;7.402;2023-04-24T02:00:43;3.20;;;1.03;;
43146;SDS011;28752;48.266;7.402;2023-04-24T02:03:08;3.90;;;1.20;;
43146;SDS011;28752;48.266;7.402;2023-04-24T02:05:34;2.73;;;1.00;;
43146;SDS011;28752;48.266;7.402;2023-04-24T02:07:59;2.10;;;0.97;;
43146;SDS011;28752;48.266;7.402;2023-04-24T02:10:24;4.70;;;1.30;;
43146;SDS011;28752;48.266;7.402;2023-04-24T02:12:50;2.83;;;1.20;;
43146;SDS011;28752;48.266;7.402;2023-04-24T02:15:15;3.40;;;1.00;;
43146;SDS011;28752;48.266;7.402;2023-04-24T02:17:41;4.55;;;1.50;;
43146;SDS011;28752;48.266;7.402;2023-04-24T02:20:07;2.93;;;1.00;;
43146;SDS011;28752;48.266;7.402;2023-04-24T02:22:32;3.67;;;1.30;;
43146;SDS011;28752;48.266;7.402;2023-04-24T02:24:58;2.20;;;1.00;;
43146;SDS011;28752;48.266;7.402;2023-04-24T02:27:23;2.03;;;1.07;;
43146;SDS011;28752;48.266;7.402;2023-04-24T02:29:49;2.70;;;1.05;;
43146;SDS011;28752;48.266;7.402;2023-04-24T02:32:14;2.73;;;1.00;;
43146;SDS011;28752;48.266;7.402;2023-04-24T02:34:40;3.38;;;1.00;;
43146;SDS011;28752;48.266;7.402;2023-04-24T02:37:05;1.70;;;0.70;;
43146;SDS011;28752;48.266;7.402;2023-04-24T02:39:31;1.50;;;1.13;;
43146;SDS011;28752;48.266;7.402;2023-04-24T02:41:56;1.37;;;0.83;;
43146;SDS011;28752;48.266;7.402;2023-04-24T02:44:21;2.07;;;0.90;;
43146;SDS011;28752;48.266;7.402;2023-04-24T02:46:47;2.08;;;1.00;;
43146;SDS011;28752;48.266;7.402;2023-04-24T02:49:12;4.33;;;1.10;;
43146;SDS011;28752;48.266;7.402;2023-04-24T02:51:38;3.00;;;1.20;;
43146;SDS011;28752;48.266;7.402;2023-04-24T02:54:06;3.00;;;1.13;;
43146;SDS011;28752;48.266;7.402;2023-04-24T02:56:37;2.40;;;1.20;;
43146;SDS011;28752;48.266;7.402;2023-04-24T02:59:02;3.40;;;1.13;;
43146;SDS011;28752;48.266;7.402;2023-04-24T03:01:28;4.60;;;1.30;;
43146;SDS011;28752;48.266;7.402;2023-04-24T03:03:53;3.15;;;1.15;;
43146;SDS011;28752;48.266;7.402;2023-04-24T03:06:19;3.17;;;1.37;;
43146;SDS011;28752;48.266;7.402;2023-04-24T03:08:46;3.78;;;1.10;;
43146;SDS011;28752;48.266;7.402;2023-04-24T03:11:11;3.80;;;1.13;;
43146;SDS011;28752;48.266;7.402;2023-04-24T03:13:37;3.47;;;1.03;;
43146;SDS011;28752;48.266;7.402;2023-04-24T03:16:02;5.53;;;1.37;;
43146;SDS011;28752;48.266;7.402;2023-04-24T03:18:27;7.00;;;1.00;;
43146;SDS011;28752;48.266;7.402;2023-04-24T03:20:53;5.93;;;1.20;;
43146;SDS011;28752;48.266;7.402;2023-04-24T03:23:18;2.33;;;0.90;;
43146;SDS011;28752;48.266;7.402;2023-04-24T03:25:43;1.90;;;1.00;;
43146;SDS011;28752;48.266;7.402;2023-04-24T03:28:09;2.37;;;1.00;;
43146;SDS011;28752;48.266;7.402;2023-04-24T03:30:34;5.83;;;0.90;;
43146;SDS011;28752;48.266;7.402;2023-04-24T03:33:00;3.10;;;1.08;;
43146;SDS011;28752;48.266;7.402;2023-04-24T03:35:25;1.45;;;0.70;;
43146;SDS011;28752;48.266;7.402;2023-04-24T03:37:51;2.37;;;0.80;;
43146;SDS011;28752;48.266;7.402;2023-04-24T03:40:16;1.50;;;0.70;;
43146;SDS011;28752;48.266;7.402;2023-04-24T03:42:42;2.30;;;0.80;;
43146;SDS011;28752;48.266;7.402;2023-04-24T03:45:07;1.50;;;0.50;;
43146;SDS011;28752;48.266;7.402;2023-04-24T03:47:33;2.03;;;0.68;;
43146;SDS011;28752;48.266;7.402;2023-04-24T03:49:58;2.20;;;0.90;;
43146;SDS011;28752;48.266;7.402;2023-04-24T03:52:24;2.10;;;0.80;;
43146;SDS011;28752;48.266;7.402;2023-04-24T03:54:49;1.40;;;0.60;;
43146;SDS011;28752;48.266;7.402;2023-04-24T03:57:15;1.93;;;0.80;;
43146;SDS011;28752;48.266;7.402;2023-04-24T03:59:40;1.67;;;0.73;;
43146;SDS011;28752;48.266;7.402;2023-04-24T04:02:05;1.83;;;0.73;;
43146;SDS011;28752;48.266;7.402;2023-04-24T04:04:30;0.77;;;0.40;;
43146;SDS011;28752;48.266;7.402;2023-04-24T04:06:56;0.93;;;0.40;;
43146;SDS011;28752;48.266;7.402;2023-04-24T04:09:21;0.87;;;0.53;;
43146;SDS011;28752;48.266;7.402;2023-04-24T04:11:46;0.67;;;0.40;;
43146;SDS011;28752;48.266;7.402;2023-04-24T04:14:12;3.17;;;0.40;;
43146;SDS011;28752;48.266;7.402;2023-04-24T04:16:37;0.60;;;0.40;;
43146;SDS011;28752;48.266;7.402;2023-04-24T04:19:03;0.77;;;0.43;;
43146;SDS011;28752;48.266;7.402;2023-04-24T04:21:29;1.13;;;0.50;;
43146;SDS011;28752;48.266;7.402;2023-04-24T04:23:56;0.60;;;0.40;;
43146;SDS011;28752;48.266;7.402;2023-04-24T04:26:21;1.88;;;0.82;;
43146;SDS011;28752;48.266;7.402;2023-04-24T04:28:50;1.20;;;0.90;;
43146;SDS011;28752;48.266;7.402;2023-04-24T04:31:16;1.52;;;0.63;;
43146;SDS011;28752;48.266;7.402;2023-04-24T04:33:41;1.73;;;0.57;;
43146;SDS011;28752;48.266;7.402;2023-04-24T04:36:06;0.87;;;0.50;;
43146;SDS011;28752;48.266;7.402;2023-04-24T04:38:32;0.73;;;0.40;;
43146;SDS011;28752;48.266;7.402;2023-04-24T04:40:58;1.35;;;0.50;;
43146;SDS011;28752;48.266;7.402;2023-04-24T04:43:24;1.07;;;0.50;;
43146;SDS011;28752;48.266;7.402;2023-04-24T04:45:49;1.42;;;0.57;;
43146;SDS011;28752;48.266;7.402;2023-04-24T04:48:16;1.08;;;0.70;;
43146;SDS011;28752;48.266;7.402;2023-04-24T04:50:42;1.05;;;0.50;;
43146;SDS011;28752;48.266;7.402;2023-04-24T04:53:07;1.50;;;0.77;;
43146;SDS011;28752;48.266;7.402;2023-04-24T04:55:33;1.33;;;0.77;;
43146;SDS011;28752;48.266;7.402;2023-04-24T04:57:59;1.47;;;0.63;;
43146;SDS011;28752;48.266;7.402;2023-04-24T05:00:25;1.33;;;0.50;;
43146;SDS011;28752;48.266;7.402;2023-04-24T05:02:51;1.27;;;0.60;;
43146;SDS011;28752;48.266;7.402;2023-04-24T05:05:16;1.67;;;0.83;;
43146;SDS011;28752;48.266;7.402;2023-04-24T05:07:42;1.30;;;0.45;;
43146;SDS011;28752;48.266;7.402;2023-04-24T05:10:08;0.85;;;0.50;;
43146;SDS011;28752;48.266;7.402;2023-04-24T05:12:34;1.60;;;0.90;;
43146;SDS011;28752;48.266;7.402;2023-04-24T05:14:59;0.57;;;0.37;;
43146;SDS011;28752;48.266;7.402;2023-04-24T05:17:25;2.23;;;0.40;;
43146;SDS011;28752;48.266;7.402;2023-04-24T05:19:50;1.13;;;0.45;;
43146;SDS011;28752;48.266;7.402;2023-04-24T05:22:16;1.30;;;0.80;;
43146;SDS011;28752;48.266;7.402;2023-04-24T05:24:43;2.10;;;0.57;;
43146;SDS011;28752;48.266;7.402;2023-04-24T05:27:08;1.67;;;0.60;;
43146;SDS011;28752;48.266;7.402;2023-04-24T05:29:34;1.15;;;0.57;;
43146;SDS011;28752;48.266;7.402;2023-04-24T05:32:00;0.97;;;0.53;;
43146;SDS011;28752;48.266;7.402;2023-04-24T05:34:25;0.85;;;0.30;;
43146;SDS011;28752;48.266;7.402;2023-04-24T05:36:51;0.95;;;0.30;;
43146;SDS011;28752;48.266;7.402;2023-04-24T05:39:17;1.20;;;0.60;;
43146;SDS011;28752;48.266;7.402;2023-04-24T05:41:42;0.88;;;0.60;;
43146;SDS011;28752;48.266;7.402;2023-04-24T05:44:08;1.42;;;0.55;;
43146;SDS011;28752;48.266;7.402;2023-04-24T05:46:34;0.83;;;0.40;;
43146;SDS011;28752;48.266;7.402;2023-04-24T05:48:59;0.80;;;0.40;;
43146;SDS011;28752;48.266;7.402;2023-04-24T05:51:25;0.83;;;0.33;;
43146;SDS011;28752;48.266;7.402;2023-04-24T05:53:51;0.77;;;0.47;;
43146;SDS011;28752;48.266;7.402;2023-04-24T05:56:16;1.27;;;0.60;;
43146;SDS011;28752;48.266;7.402;2023-04-24T05:58:42;0.80;;;0.50;;
43146;SDS011;28752;48.266;7.402;2023-04-24T06:01:07;0.73;;;0.40;;
43146;SDS011;28752;48.266;7.402;2023-04-24T06:03:33;1.07;;;0.47;;
43146;SDS011;28752;48.266;7.402;2023-04-24T06:05:58;1.07;;;0.60;;
43146;SDS011;28752;48.266;7.402;2023-04-24T06:08:24;0.60;;;0.33;;
43146;SDS011;28752;48.266;7.402;2023-04-24T06:10:49;1.33;;;0.73;;
43146;SDS011;28752;48.266;7.402;2023-04-24T06:13:15;1.20;;;0.40;;
43146;SDS011;28752;48.266;7.402;2023-04-24T06:15:41;0.70;;;0.45;;
43146;SDS011;28752;48.266;7.402;2023-04-24T06:18:06;1.02;;;0.45;;
43146;SDS011;28752;48.266;7.402;2023-04-24T06:20:31;1.50;;;0.30;;
43146;SDS011;28752;48.266;7.402;2023-04-24T06:22:57;0.83;;;0.40;;
43146;SDS011;28752;48.266;7.402;2023-04-24T06:25:24;0.90;;;0.40;;
43146;SDS011;28752;48.266;7.402;2023-04-24T06:27:50;0.85;;;0.65;;
43146;SDS011;28752;48.266;7.402;2023-04-24T06:30:15;1.27;;;0.30;;
43146;SDS011;28752;48.266;7.402;2023-04-24T06:32:41;0.60;;;0.30;;
43146;SDS011;28752;48.266;7.402;2023-04-24T06:35:06;0.77;;;0.30;;
43146;SDS011;28752;48.266;7.402;2023-04-24T06:37:33;1.00;;;0.47;;
43146;SDS011;28752;48.266;7.402;2023-04-24T06:39:58;1.02;;;0.47;;
43146;SDS011;28752;48.266;7.402;2023-04-24T07:45:59;2.03;;;0.60;;
43146;SDS011;28752;48.266;7.402;2023-04-24T07:48:24;2.05;;;0.70;;
43146;SDS011;28752;48.266;7.402;2023-04-24T07:50:51;0.40;;;0.22;;
43146;SDS011;28752;48.266;7.402;2023-04-24T07:53:17;1.48;;;0.85;;
43146;SDS011;28752;48.266;7.402;2023-04-24T07:55:42;1.00;;;0.50;;
43146;SDS011;28752;48.266;7.402;2023-04-24T07:58:08;1.13;;;0.55;;
43146;SDS011;28752;48.266;7.402;2023-04-24T08:00:33;1.08;;;0.50;;
43146;SDS011;28752;48.266;7.402;2023-04-24T08:02:59;0.30;;;0.10;;
43146;SDS011;28752;48.266;7.402;2023-04-24T08:05:24;0.50;;;0.30;;
43146;SDS011;28752;48.266;7.402;2023-04-24T08:07:52;0.45;;;0.30;;
43146;SDS011;28752;48.266;7.402;2023-04-24T08:10:17;0.40;;;0.40;;
43146;SDS011;28752;48.266;7.402;2023-04-24T08:12:43;0.70;;;0.30;;
43146;SDS011;28752;48.266;7.402;2023-04-24T08:15:08;0.33;;;0.20;;
43146;SDS011;28752;48.266;7.402;2023-04-24T08:17:34;0.55;;;0.38;;
43146;SDS011;28752;48.266;7.402;2023-04-24T08:20:00;0.40;;;0.30;;
43146;SDS011;28752;48.266;7.402;2023-04-24T08:24:53;0.80;;;0.40;;
43146;SDS011;28752;48.266;7.402;2023-04-24T08:27:18;0.80;;;0.45;;
43146;SDS011;28752;48.266;7.402;2023-04-24T08:29:44;0.53;;;0.27;;
43146;SDS011;28752;48.266;7.402;2023-04-24T08:32:09;1.05;;;0.32;;
43146;SDS011;28752;48.266;7.402;2023-04-24T08:34:35;1.70;;;0.43;;
43146;SDS011;28752;48.266;7.402;2023-04-24T08:37:00;0.53;;;0.53;;
43146;SDS011;28752;48.266;7.402;2023-04-24T08:39:25;1.03;;;0.30;;
43146;SDS011;28752;48.266;7.402;2023-04-24T08:41:51;0.50;;;0.40;;
43146;SDS011;28752;48.266;7.402;2023-04-24T08:44:17;0.85;;;0.40;;
43146;SDS011;28752;48.266;7.402;2023-04-24T08:46:44;0.45;;;0.40;;
43146;SDS011;28752;48.266;7.402;2023-04-24T08:49:13;0.50;;;0.40;;
43146;SDS011;28752;48.266;7.402;2023-04-24T08:51:42;0.32;;;0.28;;
43146;SDS011;28752;48.266;7.402;2023-04-24T08:56:34;0.60;;;0.40;;
43146;SDS011;28752;48.266;7.402;2023-04-24T08:59:04;1.85;;;0.40;;
43146;SDS011;28752;48.266;7.402;2023-04-24T09:01:31;0.45;;;0.30;;
43146;SDS011;28752;48.266;7.402;2023-04-24T09:03:58;0.65;;;0.32;;
43146;SDS011;28752;48.266;7.402;2023-04-24T09:06:27;0.38;;;0.22;;
43146;SDS011;28752;48.266;7.402;2023-04-24T09:08:53;0.38;;;0.20;;
43146;SDS011;28752;48.266;7.402;2023-04-24T09:11:20;0.30;;;0.22;;
43146;SDS011;28752;48.266;7.402;2023-04-24T09:13:48;0.40;;;0.30;;
43146;SDS011;28752;48.266;7.402;2023-04-24T09:16:14;0.25;;;0.25;;
43146;SDS011;28752;48.266;7.402;2023-04-24T09:18:40;0.70;;;0.35;;
43146;SDS011;28752;48.266;7.402;2023-04-24T09:21:09;1.07;;;0.30;;
43146;SDS011;28752;48.266;7.402;2023-04-24T09:23:35;1.10;;;0.50;;
43146;SDS011;28752;48.266;7.402;2023-04-24T09:26:02;0.63;;;0.43;;
43146;SDS011;28752;48.266;7.402;2023-04-24T09:31:04;0.40;;;0.30;;
43146;SDS011;28752;48.266;7.402;2023-04-24T09:34:04;0.40;;;0.22;;
43146;SDS011;28752;48.266;7.402;2023-04-24T09:36:33;0.47;;;0.30;;
43146;SDS011;28752;48.266;7.402;2023-04-24T09:39:02;0.40;;;0.30;;
43146;SDS011;28752;48.266;7.402;2023-04-24T09:41:29;0.57;;;0.30;;
43146;SDS011;28752;48.266;7.402;2023-04-24T09:43:57;0.63;;;0.40;;
43146;SDS011;28752;48.266;7.402;2023-04-24T09:46:36;0.60;;;0.30;;
43146;SDS011;28752;48.266;7.402;2023-04-24T09:49:34;0.60;;;0.37;;
43146;SDS011;28752;48.266;7.402;2023-04-24T09:52:07;1.00;;;0.40;;
43146;SDS011;28752;48.266;7.402;2023-04-24T09:54:34;1.00;;;0.60;;
43146;SDS011;28752;48.266;7.402;2023-04-24T09:57:01;1.33;;;0.68;;
43146;SDS011;28752;48.266;7.402;2023-04-24T09:59:27;3.40;;;1.13;;
43146;SDS011;28752;48.266;7.402;2023-04-24T10:01:53;0.75;;;0.43;;
43146;SDS011;28752;48.266;7.402;2023-04-24T10:04:21;0.57;;;0.33;;
43146;SDS011;28752;48.266;7.402;2023-04-24T10:06:49;0.63;;;0.40;;
43146;SDS011;28752;48.266;7.402;2023-04-24T10:09:16;0.85;;;0.43;;
43146;SDS011;28752;48.266;7.402;2023-04-24T10:11:44;1.67;;;0.60;;
43146;SDS011;28752;48.266;7.402;2023-04-24T10:14:18;0.90;;;0.45;;
43146;SDS011;28752;48.266;7.402;2023-04-24T10:16:45;1.17;;;0.68;;
43146;SDS011;28752;48.266;7.402;2023-04-24T10:19:14;1.88;;;0.60;;
43146;SDS011;28752;48.266;7.402;2023-04-24T10:21:41;0.82;;;0.50;;
43146;SDS011;28752;48.266;7.402;2023-04-24T10:24:11;1.75;;;0.60;;
43146;SDS011;28752;48.266;7.402;2023-04-24T10:26:41;1.27;;;0.32;;
43146;SDS011;28752;48.266;7.402;2023-04-24T10:29:06;1.00;;;0.50;;
43146;SDS011;28752;48.266;7.402;2023-04-24T10:31:34;0.95;;;0.43;;
43146;SDS011;28752;48.266;7.402;2023-04-24T10:34:03;0.60;;;0.35;;
43146;SDS011;28752;48.266;7.402;2023-04-24T10:36:30;0.43;;;0.22;;
43146;SDS011;28752;48.266;7.402;2023-04-24T10:38:57;1.70;;;0.50;;
43146;SDS011;28752;48.266;7.402;2023-04-24T10:41:25;1.17;;;0.45;;
43146;SDS011;28752;48.266;7.402;2023-04-24T10:44:11;2.67;;;0.77;;
43146;SDS011;28752;48.266;7.402;2023-04-24T10:46:42;0.38;;;0.20;;
43146;SDS011;28752;48.266;7.402;2023-04-24T10:49:09;2.00;;;0.52;;
43146;SDS011;28752;48.266;7.402;2023-04-24T10:51:48;0.73;;;0.40;;
43146;SDS011;28752;48.266;7.402;2023-04-24T10:54:27;1.10;;;0.52;;
43146;SDS011;28752;48.266;7.402;2023-04-24T10:57:38;1.73;;;1.08;;
43146;SDS011;28752;48.266;7.402;2023-04-24T11:00:30;2.03;;;0.30;;
43146;SDS011;28752;48.266;7.402;2023-04-24T11:02:50;2.05;;;0.32;;
43146;SDS011;28752;48.266;7.402;2023-04-24T11:05:18;1.05;;;0.30;;
43146;SDS011;28752;48.266;7.402;2023-04-24T11:10:39;1.38;;;0.60;;
43146;SDS011;28752;48.266;7.402;2023-04-24T11:13:08;0.73;;;0.43;;
43146;SDS011;28752;48.266;7.402;2023-04-24T11:15:33;14.20;;;0.87;;
43146;SDS011;28752;48.266;7.402;2023-04-24T11:17:59;0.95;;;0.40;;
43146;SDS011;28752;48.266;7.402;2023-04-24T11:20:25;1.00;;;0.40;;
43146;SDS011;28752;48.266;7.402;2023-04-24T11:22:52;1.50;;;0.50;;
43146;SDS011;28752;48.266;7.402;2023-04-24T11:25:22;0.47;;;0.30;;
43146;SDS011;28752;48.266;7.402;2023-04-24T11:27:48;2.05;;;0.43;;
43146;SDS011;28752;48.266;7.402;2023-04-24T11:30:18;1.83;;;0.60;;
43146;SDS011;28752;48.266;7.402;2023-04-24T11:32:47;1.50;;;0.57;;
43146;SDS011;28752;48.266;7.402;2023-04-24T11:37:46;0.90;;;0.60;;
43146;SDS011;28752;48.266;7.402;2023-04-24T11:40:14;0.90;;;0.50;;
43146;SDS011;28752;48.266;7.402;2023-04-24T11:42:42;1.80;;;0.60;;
43146;SDS011;28752;48.266;7.402;2023-04-24T11:47:41;0.50;;;0.30;;
43146;SDS011;28752;48.266;7.402;2023-04-24T11:50:08;1.15;;;0.55;;
43146;SDS011;28752;48.266;7.402;2023-04-24T11:52:39;1.48;;;0.55;;
43146;SDS011;28752;48.266;7.402;2023-04-24T11:55:25;0.88;;;0.47;;
43146;SDS011;28752;48.266;7.402;2023-04-24T12:00:22;1.77;;;0.70;;
43146;SDS011;28752;48.266;7.402;2023-04-24T12:02:49;1.50;;;0.73;;
43146;SDS011;28752;48.266;7.402;2023-04-24T12:05:23;1.42;;;0.57;;
43146;SDS011;28752;48.266;7.402;2023-04-24T12:07:51;1.00;;;0.55;;
43146;SDS011;28752;48.266;7.402;2023-04-24T12:10:20;0.63;;;0.30;;
43146;SDS011;28752;48.266;7.402;2023-04-24T12:12:47;0.90;;;0.40;;
43146;SDS011;28752;48.266;7.402;2023-04-24T12:15:15;0.70;;;0.40;;
43146;SDS011;28752;48.266;7.402;2023-04-24T12:17:42;2.40;;;0.60;;
43146;SDS011;28752;48.266;7.402;2023-04-24T12:20:08;1.05;;;0.47;;
43146;SDS011;28752;48.266;7.402;2023-04-24T12:22:43;1.17;;;0.50;;
43146;SDS011;28752;48.266;7.402;2023-04-24T12:25:14;1.50;;;0.70;;
43146;SDS011;28752;48.266;7.402;2023-04-24T12:27:40;0.77;;;0.47;;
43146;SDS011;28752;48.266;7.402;2023-04-24T12:30:12;1.17;;;0.63;;
43146;SDS011;28752;48.266;7.402;2023-04-24T12:32:43;0.50;;;0.43;;
43146;SDS011;28752;48.266;7.402;2023-04-24T12:35:10;0.75;;;0.30;;
43146;SDS011;28752;48.266;7.402;2023-04-24T12:37:35;0.95;;;0.50;;
43146;SDS011;28752;48.266;7.402;2023-04-24T12:40:05;0.93;;;0.50;;
43146;SDS011;28752;48.266;7.402;2023-04-24T12:42:32;1.25;;;0.40;;
43146;SDS011;28752;48.266;7.402;2023-04-24T12:47:25;0.55;;;0.38;;
43146;SDS011;28752;48.266;7.402;2023-04-24T12:49:51;1.00;;;0.50;;
43146;SDS011;28752;48.266;7.402;2023-04-24T12:52:17;1.38;;;0.50;;
43146;SDS011;28752;48.266;7.402;2023-04-24T12:54:45;0.65;;;0.40;;
43146;SDS011;28752;48.266;7.402;2023-04-24T12:57:10;1.58;;;0.75;;
43146;SDS011;28752;48.266;7.402;2023-04-24T12:59:36;1.30;;;0.63;;
43146;SDS011;28752;48.266;7.402;2023-04-24T13:02:01;0.77;;;0.47;;
43146;SDS011;28752;48.266;7.402;2023-04-24T13:04:26;1.23;;;0.40;;
43146;SDS011;28752;48.266;7.402;2023-04-24T13:06:52;1.27;;;0.57;;
43146;SDS011;28752;48.266;7.402;2023-04-24T13:09:17;0.73;;;0.40;;
43146;SDS011;28752;48.266;7.402;2023-04-24T13:11:42;1.87;;;0.87;;
43146;SDS011;28752;48.266;7.402;2023-04-24T13:14:08;1.10;;;0.50;;
43146;SDS011;28752;48.266;7.402;2023-04-24T13:16:33;0.80;;;0.50;;
43146;SDS011;28752;48.266;7.402;2023-04-24T13:18:59;1.25;;;0.43;;
43146;SDS011;28752;48.266;7.402;2023-04-24T13:21:24;0.47;;;0.47;;
43146;SDS011;28752;48.266;7.402;2023-04-24T13:23:51;0.98;;;0.50;;
43146;SDS011;28752;48.266;7.402;2023-04-24T13:26:16;1.00;;;0.68;;
43146;SDS011;28752;48.266;7.402;2023-04-24T13:28:42;3.38;;;0.70;;
43146;SDS011;28752;48.266;7.402;2023-04-24T13:31:07;1.17;;;0.60;;
43146;SDS011;28752;48.266;7.402;2023-04-24T13:33:33;0.43;;;0.30;;
43146;SDS011;28752;48.266;7.402;2023-04-24T13:35:58;1.27;;;0.53;;
43146;SDS011;28752;48.266;7.402;2023-04-24T13:38:23;0.90;;;0.37;;
43146;SDS011;28752;48.266;7.402;2023-04-24T13:40:49;0.93;;;0.63;;
43146;SDS011;28752;48.266;7.402;2023-04-24T13:43:14;0.80;;;0.40;;
43146;SDS011;28752;48.266;7.402;2023-04-24T13:45:40;3.13;;;0.60;;
43146;SDS011;28752;48.266;7.402;2023-04-24T13:48:06;0.63;;;0.40;;
43146;SDS011;28752;48.266;7.402;2023-04-24T13:50:31;2.17;;;0.75;;
43146;SDS011;28752;48.266;7.402;2023-04-24T13:52:56;1.23;;;0.60;;
43146;SDS011;28752;48.266;7.402;2023-04-24T13:55:22;2.17;;;0.90;;
43146;SDS011;28752;48.266;7.402;2023-04-24T13:57:47;2.05;;;0.47;;
43146;SDS011;28752;48.266;7.402;2023-04-24T14:00:14;1.20;;;0.50;;
43146;SDS011;28752;48.266;7.402;2023-04-24T14:02:40;1.35;;;0.50;;
43146;SDS011;28752;48.266;7.402;2023-04-24T14:05:05;0.70;;;0.50;;
43146;SDS011;28752;48.266;7.402;2023-04-24T14:07:31;0.93;;;0.50;;
43146;SDS011;28752;48.266;7.402;2023-04-24T14:09:56;1.23;;;0.63;;
43146;SDS011;28752;48.266;7.402;2023-04-24T14:12:22;0.73;;;0.43;;
43146;SDS011;28752;48.266;7.402;2023-04-24T14:14:47;1.10;;;0.60;;
43146;SDS011;28752;48.266;7.402;2023-04-24T14:17:13;1.27;;;0.55;;
43146;SDS011;28752;48.266;7.402;2023-04-24T14:19:39;1.13;;;0.50;;
43146;SDS011;28752;48.266;7.402;2023-04-24T14:22:04;1.30;;;0.43;;
43146;SDS011;28752;48.266;7.402;2023-04-24T14:24:30;4.07;;;1.20;;
43146;SDS011;28752;48.266;7.402;2023-04-24T14:26:55;1.00;;;0.43;;
43146;SDS011;28752;48.266;7.402;2023-04-24T14:29:21;0.88;;;0.40;;
43146;SDS011;28752;48.266;7.402;2023-04-24T14:31:46;0.98;;;0.43;;
43146;SDS011;28752;48.266;7.402;2023-04-24T14:34:13;2.37;;;1.17;;
43146;SDS011;28752;48.266;7.402;2023-04-24T14:36:38;1.05;;;0.50;;
43146;SDS011;28752;48.266;7.402;2023-04-24T14:39:04;1.33;;;0.60;;
43146;SDS011;28752;48.266;7.402;2023-04-24T14:41:31;1.58;;;0.55;;
43146;SDS011;28752;48.266;7.402;2023-04-24T14:44:00;1.42;;;0.52;;
43146;SDS011;28752;48.266;7.402;2023-04-24T14:48:51;1.00;;;0.47;;
43146;SDS011;28752;48.266;7.402;2023-04-24T14:51:17;3.03;;;0.90;;
43146;SDS011;28752;48.266;7.402;2023-04-24T14:53:42;0.90;;;0.60;;
43146;SDS011;28752;48.266;7.402;2023-04-24T14:56:07;2.63;;;0.50;;
43146;SDS011;28752;48.266;7.402;2023-04-24T14:58:33;1.10;;;0.47;;
43146;SDS011;28752;48.266;7.402;2023-04-24T15:00:59;0.88;;;0.50;;
43146;SDS011;28752;48.266;7.402;2023-04-24T15:03:25;0.57;;;0.43;;
43146;SDS011;28752;48.266;7.402;2023-04-24T15:05:51;0.90;;;0.52;;
43146;SDS011;28752;48.266;7.402;2023-04-24T15:08:17;1.07;;;0.40;;
43146;SDS011;28752;48.266;7.402;2023-04-24T15:10:42;1.60;;;1.07;;
43146;SDS011;28752;48.266;7.402;2023-04-24T15:13:08;0.67;;;0.40;;
43146;SDS011;28752;48.266;7.402;2023-04-24T15:15:33;1.23;;;0.40;;
43146;SDS011;28752;48.266;7.402;2023-04-24T15:17:58;1.20;;;0.53;;
43146;SDS011;28752;48.266;7.402;2023-04-24T15:20:24;1.43;;;0.60;;
43146;SDS011;28752;48.266;7.402;2023-04-24T15:22:49;1.05;;;0.43;;
43146;SDS011;28752;48.266;7.402;2023-04-24T15:25:15;1.23;;;0.40;;
43146;SDS011;28752;48.266;7.402;2023-04-24T15:27:44;3.93;;;0.80;;
43146;SDS011;28752;48.266;7.402;2023-04-24T15:30:10;0.73;;;0.50;;
43146;SDS011;28752;48.266;7.402;2023-04-24T15:32:36;1.83;;;0.55;;
43146;SDS011;28752;48.266;7.402;2023-04-24T15:35:02;0.52;;;0.40;;
43146;SDS011;28752;48.266;7.402;2023-04-24T15:37:28;2.25;;;0.73;;
43146;SDS011;28752;48.266;7.402;2023-04-24T15:39:53;1.00;;;0.50;;
43146;SDS011;28752;48.266;7.402;2023-04-24T15:42:19;2.03;;;0.80;;
43146;SDS011;28752;48.266;7.402;2023-04-24T15:44:44;2.03;;;0.50;;
43146;SDS011;28752;48.266;7.402;2023-04-24T15:47:09;0.77;;;0.53;;
43146;SDS011;28752;48.266;7.402;2023-04-24T15:49:35;1.47;;;0.50;;
43146;SDS011;28752;48.266;7.402;2023-04-24T15:52:00;1.67;;;0.60;;
43146;SDS011;28752;48.266;7.402;2023-04-24T15:54:26;2.23;;;0.93;;
43146;SDS011;28752;48.266;7.402;2023-04-24T15:56:51;1.23;;;0.60;;
43146;SDS011;28752;48.266;7.402;2023-04-24T15:59:17;1.48;;;0.60;;
43146;SDS011;28752;48.266;7.402;2023-04-24T16:01:42;0.55;;;0.40;;
43146;SDS011;28752;48.266;7.402;2023-04-24T16:04:08;1.60;;;0.57;;
43146;SDS011;28752;48.266;7.402;2023-04-24T16:06:33;0.60;;;0.30;;
43146;SDS011;28752;48.266;7.402;2023-04-24T16:08:59;2.40;;;0.90;;
43146;SDS011;28752;48.266;7.402;2023-04-24T16:11:25;0.97;;;0.60;;
43146;SDS011;28752;48.266;7.402;2023-04-24T16:13:50;1.47;;;0.70;;
43146;SDS011;28752;48.266;7.402;2023-04-24T16:16:16;1.33;;;0.60;;